Terminal Aerodrome Forecast
Issued by NWS Sterling, VA

Current Version | Previous Version | Graphics & Text | Print | Product List | Glossary On
Versions: 1 2 3 4 5 6 7 8 9 10 11 12 13 14 15 16 17 18 19 20 21 22 23 24
000
FTUS41 KLWX 262100 AAA
TAFIAD
TAF AMD
KIAD 262101Z 2621/2724 22006KT P6SM SCT060
     FM270600 21006KT P6SM SCT050 BKN090
     FM271200 21004KT 6SM -SHRA VCTS SCT050CB BKN090
     FM271400 22005KT 5SM -SHRA VCTS BKN050CB BKN130=

USA.gov is the U.S. government's official web portal to all federal, state and local government web resources and services.